ADDS METAR Data INFO
IDs: Format: Raw Decoded Include TAF

Data at: 0438 UTC 24 Apr 2018

KGPM 240435Z AUTO 00000KT 10SM CLR 19/11 A3006 RMK AO2 T01860109
KGPM 240415Z AUTO 24003KT 10SM CLR 19/11 A3006 RMK AO2 T01910107
KGPM 240355Z AUTO 00000KT 10SM CLR 20/11 A3005 RMK AO2 T01960106
KGPM 240335Z AUTO 00000KT 10SM CLR 19/11 A3005 RMK AO2 T01930109
KGPM 240315Z AUTO 00000KT 10SM CLR 20/10 A3005 RMK AO2 T01960101
KGPM 240255Z AUTO 00000KT 10SM CLR 20/10 A3004 RMK AO2 T01960100
KGPM 240235Z AUTO 00000KT 10SM CLR 21/10 A3003 RMK AO2 T02050099
KGPM 240215Z AUTO 00000KT 10SM CLR 20/10 A3003 RMK AO2 T02010096
KGPM 240150Z 35004KT 10SM SKC 20/10 A3002
KGPM 240050Z 33009KT 10SM SKC 23/09 A3000
KGPM 232250Z 34009KT 10SM SKC 23/09 A3000
KGPM 232150Z 34008KT 10SM SKC 23/09 A3002
KGPM 232050Z 350010KT 10SM SKC 23/10 A3003
KGPM 231950Z 28008KT 10SM SCT041 22/10 A3005
KGPM 231850Z 29010KT 10SM SCT041 22/10 A3008
KGPM 231750Z 32006KT 10SM BKN035 21/10 A3010
KGPM 231650Z 28007KT 10SM SCT033 SCT090 19/10 A3012
KGPM 231550Z 33009KT 10SM SKC 18/09 A3013
KGPM 231450Z 34010G18KT 10SM SKC 17/09 A3012
KGPM 231350Z 29003KT 10SM BKN019 13/08 A3012
KGPM 231250Z 31003KT 10SM SCT020 12/08 A3011
KGPM 231150Z 00000KT 10SM SKC 11/08 A3010
KGPM 231135Z AUTO 29003KT 10SM CLR 11/08 A3008 RMK AO2 T01140076
KGPM 231115Z AUTO 30004KT 10SM CLR 12/08 A3008 RMK AO2 T01160075
KGPM 231055Z AUTO 27005KT 10SM CLR 12/08 A3007 RMK AO2 T01170076
KGPM 231035Z AUTO 32003KT 10SM CLR 12/08 A3006 RMK AO2 T01170077
KGPM 231015Z AUTO 00000KT 10SM CLR 12/08 A3006 RMK AO2 T01210078
KGPM 230955Z AUTO 00000KT 10SM CLR 12/08 A3005 RMK AO2 T01220078
KGPM 230935Z AUTO 00000KT 10SM CLR 13/08 A3005 RMK AO2 T01250078
KGPM 230915Z AUTO 34005KT 10SM CLR 12/08 A3005 RMK AO2 T01240077
KGPM 230855Z AUTO 34004KT 10SM CLR 13/08 A3004 RMK AO2 T01250076
KGPM 230835Z AUTO 34006KT 10SM CLR 13/08 A3004 RMK AO2 T01280075
KGPM 230815Z AUTO 32004KT 10SM CLR 14/07 A3005 RMK AO2 T01350073
KGPM 230755Z AUTO 31004KT 10SM CLR 14/07 A3005 RMK AO2 T01370073
KGPM 230735Z AUTO 28006KT 10SM CLR 14/07 A3005 RMK AO2 T01420071
KGPM 230715Z AUTO 29004KT 10SM CLR 15/07 A3005 RMK AO2 T01450070
KGPM 230655Z AUTO 29004KT 10SM CLR 15/07 A3006 RMK AO2 T01460070
KGPM 230635Z AUTO 27005KT 10SM CLR 15/07 A3005 RMK AO2 T01450071
KGPM 230615Z AUTO 26006KT 10SM CLR 15/07 A3005 RMK AO2 T01450073
KGPM 230555Z AUTO 26005KT 10SM CLR 15/07 A3005 RMK AO2 T01470073 10190 20147 402000111
KGPM 230535Z AUTO 26005KT 10SM CLR 15/07 A3005 RMK AO2 T01520071
KGPM 230515Z AUTO 26005KT 10SM CLR 15/07 A3005 RMK AO2 T01500072
KGPM 230455Z AUTO 26006KT 10SM CLR 15/07 A3006 RMK AO2 T01520071
KGPM 230435Z AUTO 26005KT 10SM CLR 15/07 A3006 RMK AO2 T01520071
KGPM 230415Z AUTO 26004KT 10SM CLR 16/07 A3006 RMK AO2 T01550069
KGPM 230355Z AUTO 26004KT 10SM CLR 16/07 A3006 RMK AO2 T01600067
KGPM 230335Z AUTO 27003KT 10SM CLR 16/07 A3007 RMK AO2 T01610066
KGPM 230315Z AUTO 27003KT 10SM CLR 17/07 A3007 RMK AO2 T01650067
KGPM 230255Z AUTO 00000KT 10SM CLR 17/07 A3006 RMK AO2 T01660066
KGPM 230235Z AUTO 27004KT 10SM CLR 17/06 A3005 RMK AO2 T01710063
KGPM 230215Z AUTO 29003KT 10SM CLR 17/06 A3005 RMK AO2 T01720062
KGPM 230150Z 28005KT 10SM SKC 18/06 A3005
KGPM 230050Z 32005KT 10SM SCT050 18/06 A3004
KGPM 222350Z 32007KT 10SM SCT050 19/06 A3004
KGPM 222250Z 29009G15KT 10SM SCT055 19/05 A3004
KGPM 222150Z 31008G18KT 10SM SKC 19/06 A3004
KGPM 222050Z 32009G21KT 10SM SKC 19/06 A3005
KGPM 221950Z 28008G22KT 10SM SKC 19/06 A3007
KGPM 221850Z 30012G22KT 10SM SCT042 17/06 A3010
KGPM 221750Z 30009G21KT 10SM SCT040 17/06 A3012
KGPM 221650Z 31010G20KT 10SM SKC 16/06 A3012